Time;durP1;ratioP1;P1;durP2;ratioP2;P2;SDS_P1;SDS_P2;PMS_P1;PMS_P2;Temp;Humidity;BMP_temperature;BMP_pressure;BME280_temperature;BME280_humidity;BME280_pressure;Samples;Min_cycle;Max_cycle;Signal;HPM_P1;HPM_P2
2022/10/22 00:00:11;;;;;;;10.57;4.50;;;;;;;;;;5004004;28;21363;-62
2022/10/22 00:02:36;;;;;;;17.83;4.90;;;;;;;;;;5004628;28;20208;-62
2022/10/22 00:05:01;;;;;;;10.25;4.63;;;;;;;;;;5002973;28;20255;-62
2022/10/22 00:07:26;;;;;;;12.60;4.63;;;;;;;;;;4999364;28;20307;-62
2022/10/22 00:09:52;;;;;;;10.98;4.60;;;;;;;;;;4991640;28;20217;-61
2022/10/22 00:12:17;;;;;;;9.52;4.32;;;;;;;;;;4994724;28;20223;-61
2022/10/22 00:14:42;;;;;;;6.90;4.10;;;;;;;;;;5000709;28;20211;-61
2022/10/22 00:17:08;;;;;;;9.75;5.43;;;;;;;;;;5003170;28;20212;-62
2022/10/22 00:19:33;;;;;;;12.55;5.22;;;;;;;;;;5002236;28;20263;-62
2022/10/22 00:21:58;;;;;;;8.43;5.05;;;;;;;;;;5003197;28;20711;-61
2022/10/22 00:24:24;;;;;;;14.43;5.40;;;;;;;;;;5002168;28;20299;-61
2022/10/22 00:26:49;;;;;;;12.38;5.65;;;;;;;;;;5001472;28;20227;-61
2022/10/22 00:29:17;;;;;;;13.45;5.00;;;;;;;;;;4999063;28;20275;-61
2022/10/22 00:31:48;;;;;;;8.13;4.50;;;;;;;;;;4994729;28;20208;-61
2022/10/22 00:34:13;;;;;;;10.52;4.75;;;;;;;;;;4994559;28;20726;-61
2022/10/22 00:36:38;;;;;;;11.80;5.03;;;;;;;;;;4999201;28;20209;-61
2022/10/22 00:39:04;;;;;;;16.75;5.53;;;;;;;;;;5000847;28;20224;-61
2022/10/22 00:41:29;;;;;;;11.52;5.60;;;;;;;;;;5001316;28;20591;-61
2022/10/22 00:43:56;;;;;;;10.57;5.25;;;;;;;;;;5002142;28;20884;-61
2022/10/22 00:46:21;;;;;;;11.27;4.90;;;;;;;;;;4995944;28;20754;-61
2022/10/22 00:48:46;;;;;;;8.45;5.18;;;;;;;;;;5002424;28;20342;-61
2022/10/22 00:51:11;;;;;;;13.32;6.30;;;;;;;;;;5000272;28;20216;-61
2022/10/22 00:53:38;;;;;;;12.85;5.10;;;;;;;;;;5001969;28;20205;-61
2022/10/22 00:56:03;;;;;;;9.15;5.45;;;;;;;;;;5012821;28;20204;-62
2022/10/22 00:58:30;;;;;;;13.13;5.22;;;;;;;;;;5011413;28;20242;-62
2022/10/22 01:00:55;;;;;;;10.90;5.28;;;;;;;;;;5012068;28;20212;-62
2022/10/22 01:03:20;;;;;;;11.75;5.45;;;;;;;;;;5011120;28;20667;-61
2022/10/22 01:05:49;;;;;;;9.90;5.53;;;;;;;;;;5012725;28;20633;-61
2022/10/22 01:08:18;;;;;;;10.35;5.78;;;;;;;;;;5009897;28;20224;-61
2022/10/22 01:10:50;;;;;;;13.55;6.00;;;;;;;;;;5011249;28;20254;-61
2022/10/22 01:13:15;;;;;;;9.43;5.28;;;;;;;;;;5010827;28;20208;-62
2022/10/22 01:15:42;;;;;;;7.88;5.00;;;;;;;;;;5012006;28;20220;-61
2022/10/22 01:18:09;;;;;;;12.90;5.13;;;;;;;;;;5012198;28;20236;-62
2022/10/22 01:20:38;;;;;;;12.52;5.45;;;;;;;;;;5011395;28;20217;-61
2022/10/22 01:23:04;;;;;;;9.55;6.00;;;;;;;;;;4980594;28;20442;-61
2022/10/22 01:25:31;;;;;;;9.60;6.03;;;;;;;;;;4993821;28;20220;-62
2022/10/22 01:27:56;;;;;;;10.05;6.65;;;;;;;;;;4996513;28;20223;-62
2022/10/22 01:30:21;;;;;;;14.65;6.68;;;;;;;;;;5000730;28;20208;-62
2022/10/22 01:32:48;;;;;;;14.40;6.72;;;;;;;;;;5000087;28;20208;-62
2022/10/22 01:35:14;;;;;;;9.40;6.50;;;;;;;;;;5000557;28;20228;-62
2022/10/22 01:37:43;;;;;;;11.82;6.20;;;;;;;;;;5001468;28;20215;-62
2022/10/22 01:40:08;;;;;;;12.75;6.82;;;;;;;;;;4988561;28;20322;-61
2022/10/22 01:42:34;;;;;;;11.50;7.85;;;;;;;;;;4997700;28;20235;-62
2022/10/22 01:44:59;;;;;;;9.38;6.68;;;;;;;;;;4994440;28;20220;-62
2022/10/22 01:47:31;;;;;;;12.13;6.65;;;;;;;;;;4993112;28;20286;-62
2022/10/22 01:50:10;;;;;;;10.93;7.22;;;;;;;;;;4996143;28;20212;-62
2022/10/22 01:52:36;;;;;;;23.05;7.93;;;;;;;;;;4998663;28;20212;-62
2022/10/22 01:55:07;;;;;;;17.02;7.10;;;;;;;;;;5000782;28;20273;-62
2022/10/22 01:57:40;;;;;;;12.32;6.60;;;;;;;;;;4999773;28;20829;-61
2022/10/22 02:00:07;;;;;;;10.65;6.85;;;;;;;;;;4999058;28;20228;-62
2022/10/22 02:02:38;;;;;;;12.73;7.22;;;;;;;;;;4983409;28;20219;-62
2022/10/22 02:05:05;;;;;;;14.20;7.85;;;;;;;;;;4996020;28;20232;-61
2022/10/22 02:07:32;;;;;;;16.63;8.07;;;;;;;;;;4992046;28;20247;-61
2022/10/22 02:09:57;;;;;;;12.73;7.55;;;;;;;;;;4992957;28;20216;-61
2022/10/22 02:12:22;;;;;;;16.52;7.80;;;;;;;;;;4994094;28;20235;-62
2022/10/22 02:14:47;;;;;;;16.80;8.98;;;;;;;;;;5000812;28;20221;-61
2022/10/22 02:17:15;;;;;;;16.40;8.07;;;;;;;;;;4999306;28;20212;-61
2022/10/22 02:19:45;;;;;;;14.38;7.80;;;;;;;;;;5000471;28;20219;-62
2022/10/22 02:22:10;;;;;;;13.35;7.38;;;;;;;;;;5002415;28;20694;-62
2022/10/22 02:24:36;;;;;;;12.73;7.65;;;;;;;;;;5014497;28;20226;-61
2022/10/22 02:27:10;;;;;;;11.48;7.35;;;;;;;;;;5030392;28;20211;-62
2022/10/22 02:29:36;;;;;;;17.65;7.78;;;;;;;;;;5029614;28;20238;-62
2022/10/22 02:32:01;;;;;;;10.57;7.15;;;;;;;;;;5029700;28;20494;-62
2022/10/22 02:34:27;;;;;;;12.45;7.07;;;;;;;;;;5031141;28;20214;-62
2022/10/22 02:36:53;;;;;;;13.32;7.38;;;;;;;;;;5030782;28;20207;-61
2022/10/22 02:39:18;;;;;;;12.43;7.68;;;;;;;;;;5019872;28;20320;-62
2022/10/22 02:41:43;;;;;;;11.20;6.15;;;;;;;;;;5009756;28;20212;-61
2022/10/22 02:44:09;;;;;;;15.10;7.85;;;;;;;;;;5010406;28;20212;-62
2022/10/22 02:46:34;;;;;;;10.77;6.63;;;;;;;;;;5009947;28;20250;-61
2022/10/22 02:48:59;;;;;;;12.10;7.97;;;;;;;;;;5009352;28;20223;-61
2022/10/22 02:51:24;;;;;;;14.77;7.05;;;;;;;;;;5000208;28;20472;-62
2022/10/22 02:53:50;;;;;;;10.40;6.82;;;;;;;;;;5000751;28;20208;-61
2022/10/22 02:56:15;;;;;;;12.43;7.72;;;;;;;;;;4990315;28;20533;-62
2022/10/22 02:58:40;;;;;;;13.75;7.35;;;;;;;;;;4992290;28;20335;-62
2022/10/22 03:01:06;;;;;;;16.80;6.85;;;;;;;;;;4991374;28;20216;-62
2022/10/22 03:03:31;;;;;;;15.70;7.07;;;;;;;;;;5000015;28;20246;-62
2022/10/22 03:05:56;;;;;;;14.80;7.30;;;;;;;;;;4999359;28;20290;-62
2022/10/22 03:08:21;;;;;;;16.08;8.02;;;;;;;;;;4997235;28;20678;-62
2022/10/22 03:10:47;;;;;;;16.75;8.27;;;;;;;;;;4999812;28;20200;-62
2022/10/22 03:13:12;;;;;;;17.48;7.43;;;;;;;;;;4999147;28;20270;-62
2022/10/22 03:15:37;;;;;;;13.43;7.40;;;;;;;;;;4999125;28;20221;-62
2022/10/22 03:18:02;;;;;;;14.70;7.50;;;;;;;;;;4995070;28;20274;-62
2022/10/22 03:20:28;;;;;;;13.27;7.93;;;;;;;;;;4991559;28;20382;-62
2022/10/22 03:22:53;;;;;;;11.07;6.88;;;;;;;;;;4992072;28;20207;-62
2022/10/22 03:25:20;;;;;;;18.88;9.32;;;;;;;;;;4986743;28;20303;-62
2022/10/22 03:27:45;;;;;;;15.13;8.88;;;;;;;;;;4998879;28;20220;-62
2022/10/22 03:30:11;;;;;;;15.30;7.93;;;;;;;;;;4999254;28;20219;-62
2022/10/22 03:32:36;;;;;;;14.63;8.40;;;;;;;;;;4998307;28;20295;-62
2022/10/22 03:35:02;;;;;;;11.85;6.50;;;;;;;;;;4997558;28;20323;-62
2022/10/22 03:37:27;;;;;;;17.42;9.02;;;;;;;;;;4999944;28;20209;-62
2022/10/22 03:39:52;;;;;;;14.90;7.47;;;;;;;;;;4996870;28;20228;-63
2022/10/22 03:42:18;;;;;;;21.42;9.40;;;;;;;;;;4991653;28;20212;-62
2022/10/22 03:44:43;;;;;;;16.23;7.90;;;;;;;;;;4990009;28;20514;-62
2022/10/22 03:47:08;;;;;;;14.32;7.90;;;;;;;;;;4994419;28;21091;-62
2022/10/22 03:49:34;;;;;;;14.30;7.40;;;;;;;;;;4999329;28;20557;-63
2022/10/22 03:52:06;;;;;;;14.05;7.13;;;;;;;;;;5001349;28;20581;-62
2022/10/22 03:54:31;;;;;;;14.40;6.75;;;;;;;;;;5001370;28;20223;-62
2022/10/22 03:56:56;;;;;;;14.98;7.75;;;;;;;;;;4999784;28;20615;-62
2022/10/22 03:59:22;;;;;;;11.85;6.85;;;;;;;;;;4999970;28;20684;-62
2022/10/22 04:01:47;;;;;;;9.98;6.20;;;;;;;;;;4998856;28;20219;-62
2022/10/22 04:04:12;;;;;;;13.63;7.65;;;;;;;;;;4991428;28;20648;-63
2022/10/22 04:06:37;;;;;;;13.68;7.05;;;;;;;;;;4991886;28;20571;-62
2022/10/22 04:09:03;;;;;;;13.40;6.90;;;;;;;;;;4991643;28;20216;-63
2022/10/22 04:11:28;;;;;;;15.70;6.90;;;;;;;;;;4998593;28;20286;-62
2022/10/22 04:13:53;;;;;;;12.18;7.25;;;;;;;;;;4998960;28;20224;-62
2022/10/22 04:16:19;;;;;;;13.85;7.30;;;;;;;;;;4999812;28;20278;-62
2022/10/22 04:18:45;;;;;;;13.20;6.88;;;;;;;;;;5001862;28;20590;-62
2022/10/22 04:21:10;;;;;;;15.32;7.75;;;;;;;;;;5002600;28;20295;-62
2022/10/22 04:23:35;;;;;;;12.45;7.03;;;;;;;;;;5002778;28;20250;-62
2022/10/22 04:26:01;;;;;;;11.43;6.72;;;;;;;;;;4996374;28;20212;-62
2022/10/22 04:28:27;;;;;;;10.20;6.80;;;;;;;;;;4993624;28;20315;-62
2022/10/22 04:30:52;;;;;;;9.18;6.15;;;;;;;;;;4994834;28;20307;-62
2022/10/22 04:33:17;;;;;;;14.73;6.68;;;;;;;;;;5000294;28;20220;-62
2022/10/22 04:35:42;;;;;;;17.02;7.13;;;;;;;;;;5002507;28;20216;-62
2022/10/22 04:38:08;;;;;;;10.45;6.30;;;;;;;;;;5001227;28;20235;-62
2022/10/22 04:40:33;;;;;;;11.80;6.40;;;;;;;;;;5001887;28;20259;-62
2022/10/22 04:42:58;;;;;;;13.95;7.03;;;;;;;;;;5002325;28;20791;-63
2022/10/22 04:45:23;;;;;;;15.85;8.15;;;;;;;;;;4999569;28;20223;-63
2022/10/22 04:47:49;;;;;;;15.43;6.65;;;;;;;;;;4999055;28;20518;-62
2022/10/22 04:50:14;;;;;;;10.30;6.88;;;;;;;;;;4994796;28;20230;-62
2022/10/22 04:52:39;;;;;;;16.02;7.85;;;;;;;;;;4992658;28;20636;-62
2022/10/22 04:55:05;;;;;;;16.20;6.97;;;;;;;;;;4995534;28;20205;-61
2022/10/22 04:57:30;;;;;;;17.27;9.50;;;;;;;;;;5001012;28;20423;-62
2022/10/22 04:59:55;;;;;;;16.70;7.50;;;;;;;;;;4999889;28;20232;-62
2022/10/22 05:02:20;;;;;;;10.57;7.00;;;;;;;;;;5001027;28;20216;-62
2022/10/22 05:04:46;;;;;;;15.88;7.90;;;;;;;;;;5001638;28;20717;-62
2022/10/22 05:07:11;;;;;;;11.85;7.20;;;;;;;;;;4986295;28;20220;-63
2022/10/22 05:09:36;;;;;;;13.57;7.30;;;;;;;;;;5001543;28;20204;-62
2022/10/22 05:12:02;;;;;;;13.60;6.82;;;;;;;;;;4990844;28;20279;-63
2022/10/22 05:14:27;;;;;;;12.48;6.65;;;;;;;;;;4993219;28;20208;-62
2022/10/22 05:16:52;;;;;;;12.98;6.47;;;;;;;;;;5004137;28;20274;-62
2022/10/22 05:19:19;;;;;;;8.77;6.25;;;;;;;;;;5017342;28;20227;-62
2022/10/22 05:21:44;;;;;;;13.18;6.40;;;;;;;;;;5012876;28;20211;-61
2022/10/22 05:24:09;;;;;;;11.68;6.80;;;;;;;;;;5016466;28;20207;-62
2022/10/22 05:26:35;;;;;;;11.75;6.57;;;;;;;;;;5016696;28;20319;-61
2022/10/22 05:29:00;;;;;;;13.73;6.72;;;;;;;;;;5015360;28;20212;-61
2022/10/22 05:31:27;;;;;;;14.07;7.00;;;;;;;;;;5018641;28;20216;-61
2022/10/22 05:33:52;;;;;;;12.35;6.22;;;;;;;;;;5018835;28;20267;-61
2022/10/22 05:36:18;;;;;;;12.07;6.68;;;;;;;;;;5014855;28;20204;-61
2022/10/22 05:38:44;;;;;;;14.75;6.85;;;;;;;;;;5015002;28;20315;-61
2022/10/22 05:41:10;;;;;;;12.27;6.80;;;;;;;;;;5010459;28;20688;-61
2022/10/22 05:43:35;;;;;;;13.10;6.60;;;;;;;;;;5016592;28;20756;-61
2022/10/22 05:46:02;;;;;;;10.57;6.07;;;;;;;;;;5018176;28;20209;-61
2022/10/22 05:48:28;;;;;;;10.85;6.18;;;;;;;;;;5010991;28;20231;-61
2022/10/22 05:50:53;;;;;;;13.48;6.38;;;;;;;;;;5013374;28;20208;-61
2022/10/22 05:53:18;;;;;;;9.25;5.50;;;;;;;;;;5014858;28;20236;-61
2022/10/22 05:55:44;;;;;;;9.18;5.30;;;;;;;;;;5016533;28;20197;-61
2022/10/22 05:58:09;;;;;;;10.32;5.55;;;;;;;;;;5015253;28;20614;-61
2022/10/22 06:00:35;;;;;;;12.63;6.00;;;;;;;;;;5010437;28;20223;-61
2022/10/22 06:03:00;;;;;;;13.68;5.47;;;;;;;;;;5015902;28;20208;-61
2022/10/22 06:05:25;;;;;;;8.55;5.53;;;;;;;;;;5014447;28;20232;-61
2022/10/22 06:07:50;;;;;;;10.07;5.40;;;;;;;;;;5015131;28;20236;-62
2022/10/22 06:10:17;;;;;;;12.98;5.80;;;;;;;;;;5027218;28;20224;-62
2022/10/22 06:12:42;;;;;;;13.77;5.55;;;;;;;;;;5029582;28;20207;-62
2022/10/22 06:15:12;;;;;;;11.25;5.20;;;;;;;;;;5026450;28;20231;-63
2022/10/22 06:17:38;;;;;;;9.75;5.97;;;;;;;;;;5011823;28;20266;-62
2022/10/22 06:20:03;;;;;;;6.53;3.55;;;;;;;;;;5010669;28;20220;-65
2022/10/22 06:22:29;;;;;;;19.50;6.50;;;;;;;;;;5011259;28;20216;-64
2022/10/22 06:24:54;;;;;;;10.60;5.30;;;;;;;;;;5010447;28;20624;-64
2022/10/22 06:27:19;;;;;;;11.77;5.28;;;;;;;;;;5010329;28;20216;-65
2022/10/22 06:29:44;;;;;;;13.52;5.80;;;;;;;;;;5011553;28;20204;-64
2022/10/22 06:32:10;;;;;;;11.40;5.78;;;;;;;;;;5009582;28;20235;-65
2022/10/22 06:34:35;;;;;;;11.55;5.20;;;;;;;;;;5011051;28;20561;-65
2022/10/22 06:37:00;;;;;;;8.88;4.82;;;;;;;;;;5010584;28;20266;-66
2022/10/22 06:39:25;;;;;;;11.68;5.28;;;;;;;;;;5009437;28;20683;-65
2022/10/22 06:41:51;;;;;;;14.32;5.38;;;;;;;;;;5010522;28;20213;-64
2022/10/22 06:44:16;;;;;;;15.18;6.00;;;;;;;;;;5010462;28;20676;-65
2022/10/22 06:46:42;;;;;;;10.77;5.30;;;;;;;;;;5010469;28;20216;-64
2022/10/22 06:49:09;;;;;;;14.32;5.75;;;;;;;;;;5010410;28;20609;-65
2022/10/22 06:51:34;;;;;;;8.48;5.20;;;;;;;;;;5008803;28;20264;-65
2022/10/22 06:53:59;;;;;;;9.70;5.18;;;;;;;;;;5010968;28;20687;-64
2022/10/22 06:56:26;;;;;;;10.38;5.68;;;;;;;;;;5009948;28;20213;-65
2022/10/22 06:58:52;;;;;;;13.25;5.35;;;;;;;;;;5008676;28;20267;-64
2022/10/22 07:01:18;;;;;;;12.13;5.40;;;;;;;;;;5010320;28;20238;-65
2022/10/22 07:03:43;;;;;;;14.57;5.22;;;;;;;;;;5009263;28;20236;-65
2022/10/22 07:06:09;;;;;;;12.65;4.80;;;;;;;;;;5009277;28;20236;-65
2022/10/22 07:08:34;;;;;;;10.65;4.82;;;;;;;;;;5010766;28;20223;-64
2022/10/22 07:11:07;;;;;;;10.65;4.93;;;;;;;;;;5009177;28;20208;-64
2022/10/22 07:13:32;;;;;;;13.18;5.55;;;;;;;;;;5009348;28;20204;-64
2022/10/22 07:15:57;;;;;;;13.05;5.05;;;;;;;;;;5010503;28;20220;-65
2022/10/22 07:18:22;;;;;;;15.20;6.10;;;;;;;;;;5009993;28;20288;-64
2022/10/22 07:20:48;;;;;;;16.90;6.43;;;;;;;;;;5010085;28;20248;-64
2022/10/22 07:23:13;;;;;;;15.57;5.53;;;;;;;;;;5009859;28;20223;-64
2022/10/22 07:25:39;;;;;;;14.35;6.22;;;;;;;;;;5010551;28;20219;-64
2022/10/22 07:28:04;;;;;;;19.27;6.60;;;;;;;;;;5009111;28;20215;-66
2022/10/22 07:30:30;;;;;;;9.93;5.43;;;;;;;;;;5010817;28;20208;-64
2022/10/22 07:32:55;;;;;;;13.50;5.43;;;;;;;;;;5010310;28;20286;-65
2022/10/22 07:35:20;;;;;;;15.25;4.95;;;;;;;;;;5009230;28;20298;-64
2022/10/22 07:37:45;;;;;;;11.15;4.32;;;;;;;;;;5010316;28;20599;-64
2022/10/22 07:40:11;;;;;;;13.63;5.00;;;;;;;;;;5010040;28;20240;-65
2022/10/22 07:42:36;;;;;;;12.13;4.55;;;;;;;;;;5009573;28;20215;-64
2022/10/22 07:45:01;;;;;;;10.52;4.45;;;;;;;;;;5010141;28;20220;-65
2022/10/22 07:47:27;;;;;;;13.85;4.55;;;;;;;;;;5010514;28;20213;-65
2022/10/22 07:49:52;;;;;;;13.70;4.70;;;;;;;;;;5009418;28;20230;-65
2022/10/22 07:52:18;;;;;;;14.13;4.03;;;;;;;;;;5012379;28;20216;-64
2022/10/22 07:54:43;;;;;;;13.07;3.55;;;;;;;;;;5013229;28;20208;-65
2022/10/22 07:57:08;;;;;;;17.58;4.40;;;;;;;;;;5013619;28;20213;-65
2022/10/22 07:59:33;;;;;;;12.77;4.18;;;;;;;;;;5014055;28;20212;-65
2022/10/22 08:01:59;;;;;;;12.25;3.75;;;;;;;;;;5013248;28;20219;-65
2022/10/22 08:04:24;;;;;;;10.18;3.42;;;;;;;;;;5013175;28;20247;-65
2022/10/22 08:06:49;;;;;;;11.80;3.90;;;;;;;;;;5013880;28;20219;-64
2022/10/22 08:09:14;;;;;;;12.88;3.17;;;;;;;;;;5012554;28;20587;-64
2022/10/22 08:11:40;;;;;;;14.45;3.70;;;;;;;;;;5013930;28;20211;-65
2022/10/22 08:14:05;;;;;;;12.85;3.60;;;;;;;;;;5013359;28;20287;-65
2022/10/22 08:16:30;;;;;;;9.63;2.95;;;;;;;;;;5013314;28;20288;-65
2022/10/22 08:18:55;;;;;;;12.38;3.53;;;;;;;;;;5013763;28;20367;-65
2022/10/22 08:21:21;;;;;;;14.23;3.45;;;;;;;;;;5012912;28;20243;-64
2022/10/22 08:23:46;;;;;;;13.88;4.28;;;;;;;;;;5012802;28;20221;-64
2022/10/22 08:26:11;;;;;;;16.48;3.90;;;;;;;;;;5013141;28;20224;-65
2022/10/22 08:28:37;;;;;;;9.82;2.90;;;;;;;;;;5013478;28;20208;-64
2022/10/22 08:31:03;;;;;;;10.95;2.92;;;;;;;;;;5012560;28;20216;-65
2022/10/22 08:33:28;;;;;;;11.32;2.60;;;;;;;;;;5013442;28;20312;-65
2022/10/22 08:35:53;;;;;;;9.82;3.40;;;;;;;;;;5013346;28;20732;-64
2022/10/22 08:38:19;;;;;;;12.18;2.78;;;;;;;;;;5011986;28;20216;-65
2022/10/22 08:40:46;;;;;;;9.77;2.60;;;;;;;;;;5013321;28;20303;-64
2022/10/22 08:43:17;;;;;;;12.75;2.60;;;;;;;;;;5012733;28;20623;-65
2022/10/22 08:45:46;;;;;;;10.57;2.85;;;;;;;;;;5011312;28;20208;-64
2022/10/22 08:48:31;;;;;;;10.90;2.97;;;;;;;;;;5011511;28;20217;-65
2022/10/22 08:50:56;;;;;;;10.35;2.50;;;;;;;;;;5011303;28;20223;-64
2022/10/22 08:53:30;;;;;;;10.30;2.42;;;;;;;;;;5012158;28;20216;-65
2022/10/22 08:55:55;;;;;;;10.07;2.20;;;;;;;;;;5012934;28;20209;-64
2022/10/22 08:58:22;;;;;;;10.77;2.30;;;;;;;;;;5011712;28;20220;-65
2022/10/22 09:00:56;;;;;;;9.55;2.97;;;;;;;;;;5013079;28;20213;-64
2022/10/22 09:03:22;;;;;;;11.77;2.55;;;;;;;;;;5010163;28;20208;-64
2022/10/22 09:06:12;;;;;;;12.48;2.45;;;;;;;;;;5011808;28;20263;-64
2022/10/22 09:08:38;;;;;;;9.93;2.65;;;;;;;;;;5011165;28;20303;-64
2022/10/22 09:11:04;;;;;;;11.23;2.72;;;;;;;;;;5011119;28;20303;-64
2022/10/22 09:13:30;;;;;;;14.27;2.90;;;;;;;;;;5012325;28;20212;-64
2022/10/22 09:15:57;;;;;;;10.77;2.83;;;;;;;;;;5012443;28;20213;-64
2022/10/22 09:18:36;;;;;;;12.57;2.90;;;;;;;;;;5010781;28;20677;-64
2022/10/22 09:21:04;;;;;;;7.22;2.00;;;;;;;;;;5010066;28;20242;-64
2022/10/22 09:23:37;;;;;;;13.43;3.08;;;;;;;;;;5012501;28;20298;-64
2022/10/22 09:26:05;;;;;;;12.73;2.75;;;;;;;;;;5010699;28;20754;-64
2022/10/22 09:28:30;;;;;;;11.48;2.75;;;;;;;;;;5010580;28;20315;-64
2022/10/22 09:30:56;;;;;;;10.18;2.70;;;;;;;;;;5012234;28;20727;-64
2022/10/22 09:33:27;;;;;;;10.73;2.10;;;;;;;;;;5011253;28;20217;-64
2022/10/22 09:35:54;;;;;;;9.75;2.60;;;;;;;;;;5011017;28;20259;-64
2022/10/22 09:38:20;;;;;;;11.95;2.90;;;;;;;;;;5010377;28;20212;-65
2022/10/22 09:40:48;;;;;;;8.52;2.25;;;;;;;;;;5011320;28;20220;-64
2022/10/22 09:43:13;;;;;;;11.82;2.42;;;;;;;;;;5010302;28;20224;-65
2022/10/22 09:45:39;;;;;;;11.68;2.42;;;;;;;;;;5012240;28;20243;-65
2022/10/22 09:48:14;;;;;;;12.85;2.50;;;;;;;;;;5010854;28;20220;-65
2022/10/22 09:50:46;;;;;;;11.50;3.38;;;;;;;;;;5012095;28;20216;-64
2022/10/22 09:53:14;;;;;;;11.45;2.55;;;;;;;;;;5011264;28;20213;-65
2022/10/22 09:55:39;;;;;;;11.57;2.35;;;;;;;;;;5009599;28;20653;-64
2022/10/22 09:58:07;;;;;;;11.90;2.63;;;;;;;;;;5011357;28;20236;-65
2022/10/22 10:00:32;;;;;;;11.02;2.90;;;;;;;;;;5011754;28;20703;-64
2022/10/22 10:02:58;;;;;;;9.52;2.40;;;;;;;;;;5010922;28;20217;-64
2022/10/22 10:05:24;;;;;;;11.60;2.70;;;;;;;;;;5009811;28;20235;-64
2022/10/22 10:07:49;;;;;;;10.10;3.17;;;;;;;;;;4993897;28;20650;-65
2022/10/22 10:10:16;;;;;;;11.48;2.78;;;;;;;;;;5010274;28;20247;-65
2022/10/22 10:12:47;;;;;;;11.30;3.40;;;;;;;;;;5011576;28;20295;-64
2022/10/22 10:15:30;;;;;;;10.82;2.42;;;;;;;;;;5010902;28;20257;-65
2022/10/22 10:18:00;;;;;;;8.50;2.45;;;;;;;;;;5010157;28;20223;-64
2022/10/22 10:20:28;;;;;;;11.68;3.17;;;;;;;;;;5009846;28;20341;-64
2022/10/22 10:22:57;;;;;;;12.05;2.90;;;;;;;;;;5009104;28;20236;-64
2022/10/22 10:25:31;;;;;;;11.98;2.75;;;;;;;;;;5009528;28;20240;-64
2022/10/22 10:28:15;;;;;;;9.90;2.42;;;;;;;;;;5011119;28;20314;-64
2022/10/22 10:30:43;;;;;;;11.23;2.67;;;;;;;;;;5010358;28;20220;-64
2022/10/22 10:33:13;;;;;;;13.48;2.97;;;;;;;;;;5009485;28;20692;-64
2022/10/22 10:35:41;;;;;;;12.80;2.50;;;;;;;;;;5010022;28;20473;-64
2022/10/22 10:38:17;;;;;;;13.38;2.75;;;;;;;;;;5009801;28;20208;-64
2022/10/22 10:40:47;;;;;;;10.40;2.60;;;;;;;;;;5009695;28;20230;-64
2022/10/22 10:43:14;;;;;;;10.23;2.50;;;;;;;;;;5009378;28;20220;-64
2022/10/22 10:45:43;;;;;;;10.07;2.40;;;;;;;;;;5009119;28;20213;-64
2022/10/22 10:48:21;;;;;;;10.10;2.40;;;;;;;;;;5010587;28;20216;-64
2022/10/22 10:50:47;;;;;;;14.40;2.70;;;;;;;;;;5010361;28;20212;-64
2022/10/22 10:53:13;;;;;;;11.10;3.17;;;;;;;;;;5010326;28;20295;-64
2022/10/22 10:55:52;;;;;;;10.85;3.10;;;;;;;;;;5009507;28;20211;-64
2022/10/22 10:58:20;;;;;;;10.52;2.80;;;;;;;;;;5008188;28;20212;-64
2022/10/22 11:00:54;;;;;;;12.88;2.85;;;;;;;;;;5009651;28;20232;-64
2022/10/22 11:03:46;;;;;;;12.95;2.75;;;;;;;;;;5008814;28;20215;-63
2022/10/22 11:06:13;;;;;;;12.80;3.00;;;;;;;;;;5009409;28;20608;-65
2022/10/22 11:08:40;;;;;;;9.70;2.53;;;;;;;;;;5009165;28;20205;-65
2022/10/22 11:11:09;;;;;;;13.27;2.95;;;;;;;;;;5008894;28;20597;-65
2022/10/22 11:13:34;;;;;;;12.93;2.80;;;;;;;;;;5008682;28;20224;-64
2022/10/22 11:16:02;;;;;;;12.60;2.85;;;;;;;;;;5010539;28;20290;-64
2022/10/22 11:18:28;;;;;;;12.70;3.33;;;;;;;;;;5010250;28;20235;-64
2022/10/22 11:21:02;;;;;;;13.10;3.08;;;;;;;;;;5010040;28;20215;-64
2022/10/22 11:23:31;;;;;;;10.90;2.63;;;;;;;;;;5009054;28;20216;-64
2022/10/22 11:25:57;;;;;;;10.98;3.22;;;;;;;;;;5010434;28;20274;-64
2022/10/22 11:28:23;;;;;;;8.38;2.70;;;;;;;;;;5016358;28;20271;-64
2022/10/22 11:30:52;;;;;;;10.75;2.60;;;;;;;;;;5017001;28;20204;-64
2022/10/22 11:33:18;;;;;;;10.52;2.85;;;;;;;;;;5015878;28;20547;-64
2022/10/22 11:35:43;;;;;;;10.35;2.80;;;;;;;;;;5015771;28;20216;-64
2022/10/22 11:38:11;;;;;;;11.13;2.67;;;;;;;;;;5015127;28;20215;-64
2022/10/22 11:40:37;;;;;;;11.75;2.45;;;;;;;;;;5014559;28;20223;-64
2022/10/22 11:43:03;;;;;;;9.55;2.20;;;;;;;;;;5016199;28;20270;-64
2022/10/22 11:45:29;;;;;;;8.02;2.17;;;;;;;;;;5016909;28;20204;-63
2022/10/22 11:48:10;;;;;;;9.00;2.20;;;;;;;;;;5016121;28;20204;-64
2022/10/22 11:50:49;;;;;;;10.50;2.03;;;;;;;;;;5016605;28;20442;-64
2022/10/22 11:53:17;;;;;;;11.13;2.97;;;;;;;;;;5016264;28;20215;-64
2022/10/22 11:55:45;;;;;;;16.48;2.15;;;;;;;;;;5014734;28;20214;-63
2022/10/22 11:58:28;;;;;;;11.35;2.13;;;;;;;;;;5016312;28;20220;-64
2022/10/22 12:00:56;;;;;;;8.35;1.65;;;;;;;;;;5014935;28;20219;-63
2022/10/22 12:03:31;;;;;;;11.60;2.83;;;;;;;;;;5016184;28;20235;-64
2022/10/22 12:06:19;;;;;;;7.93;1.90;;;;;;;;;;5016549;28;20278;-64
2022/10/22 12:08:47;;;;;;;10.25;2.05;;;;;;;;;;5014321;28;20211;-64
2022/10/22 12:11:14;;;;;;;14.27;2.55;;;;;;;;;;5015895;28;20212;-63
2022/10/22 12:13:48;;;;;;;9.40;2.05;;;;;;;;;;5015209;28;20212;-64
2022/10/22 12:16:14;;;;;;;9.90;2.35;;;;;;;;;;5015418;28;20318;-64
2022/10/22 12:18:40;;;;;;;9.50;1.90;;;;;;;;;;5015329;28;20303;-63
2022/10/22 12:21:05;;;;;;;8.60;1.98;;;;;;;;;;5016191;28;20282;-64
2022/10/22 12:23:31;;;;;;;8.77;1.98;;;;;;;;;;5015932;28;20219;-64
2022/10/22 12:25:57;;;;;;;10.98;2.05;;;;;;;;;;5015156;28;20696;-63
2022/10/22 12:28:22;;;;;;;10.60;1.83;;;;;;;;;;5015672;28;20316;-64
2022/10/22 12:30:47;;;;;;;11.48;2.00;;;;;;;;;;5013649;28;20215;-63
2022/10/22 12:33:18;;;;;;;10.80;2.35;;;;;;;;;;4990104;28;20561;-64
2022/10/22 12:35:44;;;;;;;9.98;2.03;;;;;;;;;;5001577;28;20243;-64
2022/10/22 12:38:12;;;;;;;13.38;2.78;;;;;;;;;;5001038;28;20286;-64
2022/10/22 12:40:38;;;;;;;14.73;2.30;;;;;;;;;;5004451;28;20351;-64
2022/10/22 12:43:09;;;;;;;10.90;2.05;;;;;;;;;;5006289;28;20223;-64
2022/10/22 12:45:34;;;;;;;15.02;2.13;;;;;;;;;;5006225;28;20270;-63
2022/10/22 12:48:01;;;;;;;8.93;1.98;;;;;;;;;;5005539;28;20216;-63
2022/10/22 12:50:31;;;;;;;9.45;1.83;;;;;;;;;;5006300;28;20750;-63
2022/10/22 12:52:57;;;;;;;10.30;2.08;;;;;;;;;;5005949;28;20211;-63
2022/10/22 12:55:24;;;;;;;9.95;2.45;;;;;;;;;;5003204;28;20208;-63
2022/10/22 12:57:49;;;;;;;13.52;2.40;;;;;;;;;;4997687;28;20213;-64
2022/10/22 13:00:19;;;;;;;14.88;2.03;;;;;;;;;;4999698;28;20652;-64
2022/10/22 13:02:44;;;;;;;8.50;1.63;;;;;;;;;;5002807;28;20217;-63
2022/10/22 13:05:19;;;;;;;12.05;2.25;;;;;;;;;;5005802;28;20236;-65
2022/10/22 13:07:49;;;;;;;15.30;2.78;;;;;;;;;;5005790;28;20212;-64
2022/10/22 13:10:17;;;;;;;12.82;1.98;;;;;;;;;;5006656;28;20240;-63
2022/10/22 13:12:43;;;;;;;13.70;2.38;;;;;;;;;;5004898;28;20230;-63
2022/10/22 13:15:19;;;;;;;11.80;1.95;;;;;;;;;;5006192;28;20432;-64
2022/10/22 13:17:44;;;;;;;11.00;2.35;;;;;;;;;;5005422;28;20220;-63
2022/10/22 13:20:19;;;;;;;13.63;2.30;;;;;;;;;;4997728;28;20746;-64
2022/10/22 13:22:53;;;;;;;12.35;3.15;;;;;;;;;;4999517;28;20216;-63
2022/10/22 13:25:20;;;;;;;11.88;2.20;;;;;;;;;;5000593;28;20216;-63
2022/10/22 13:27:45;;;;;;;12.07;2.30;;;;;;;;;;5006621;28;20238;-64
2022/10/22 13:30:16;;;;;;;12.40;2.10;;;;;;;;;;5005995;28;20699;-63
2022/10/22 13:32:41;;;;;;;10.48;2.08;;;;;;;;;;5006687;28;20684;-63
2022/10/22 13:35:07;;;;;;;12.68;2.30;;;;;;;;;;5009515;28;20449;-64
2022/10/22 13:37:34;;;;;;;12.00;1.95;;;;;;;;;;5011209;28;20282;-63
2022/10/22 13:39:59;;;;;;;11.95;2.35;;;;;;;;;;5011487;28;20228;-63
2022/10/22 13:42:25;;;;;;;12.40;2.78;;;;;;;;;;5011485;28;20212;-63
2022/10/22 13:44:50;;;;;;;8.95;2.17;;;;;;;;;;5011830;28;20227;-63
2022/10/22 13:47:22;;;;;;;14.05;2.35;;;;;;;;;;5010706;28;20244;-64
2022/10/22 13:49:48;;;;;;;9.65;2.03;;;;;;;;;;5010296;28;20220;-63
2022/10/22 13:52:14;;;;;;;13.00;2.72;;;;;;;;;;5011474;28;20220;-64
2022/10/22 13:54:39;;;;;;;15.20;2.28;;;;;;;;;;5009901;28;20200;-63
2022/10/22 13:57:07;;;;;;;7.60;1.88;;;;;;;;;;5011355;28;20295;-63
2022/10/22 13:59:32;;;;;;;9.88;2.05;;;;;;;;;;5010394;28;20225;-64
2022/10/22 14:02:01;;;;;;;12.77;2.10;;;;;;;;;;5010812;28;20213;-63
2022/10/22 14:04:26;;;;;;;12.23;2.55;;;;;;;;;;5010264;28;20228;-64
2022/10/22 14:06:51;;;;;;;14.50;2.95;;;;;;;;;;5011737;28;20791;-63
2022/10/22 14:09:17;;;;;;;11.77;2.53;;;;;;;;;;5010506;28;20426;-64
2022/10/22 14:11:42;;;;;;;12.35;2.50;;;;;;;;;;5010397;28;20207;-63
2022/10/22 14:14:08;;;;;;;9.88;2.42;;;;;;;;;;5011030;28;20224;-64
2022/10/22 14:16:33;;;;;;;12.93;2.53;;;;;;;;;;5010721;28;20574;-62
2022/10/22 14:18:59;;;;;;;12.93;2.35;;;;;;;;;;5011225;28;20224;-63
2022/10/22 14:21:24;;;;;;;12.32;2.53;;;;;;;;;;5009654;28;20279;-63
2022/10/22 14:23:51;;;;;;;10.27;2.28;;;;;;;;;;5009452;28;20296;-63
2022/10/22 14:26:20;;;;;;;11.02;2.08;;;;;;;;;;5011095;28;20554;-63
2022/10/22 14:28:45;;;;;;;10.43;2.10;;;;;;;;;;5010299;28;20208;-63